createdAt,value
2023-03-29T00:01:08.123Z,10.40
2023-03-29T00:03:40.640Z,10.40
2023-03-29T00:06:10.162Z,10.40
2023-03-29T00:08:40.670Z,10.40
2023-03-29T00:11:08.891Z,10.40
2023-03-29T00:13:37.528Z,10.30
2023-03-29T00:16:05.865Z,10.30
2023-03-29T00:18:33.822Z,10.20
2023-03-29T00:21:02.310Z,10.10
2023-03-29T00:23:31.191Z,10.10
2023-03-29T00:26:00.962Z,10.10
2023-03-29T00:28:28.897Z,10.00
2023-03-29T00:31:09.483Z,10.00
2023-03-29T00:33:38.238Z,10.00
2023-03-29T00:36:09.094Z,10.00
2023-03-29T00:38:38.125Z,10.00
2023-03-29T00:41:07.277Z,10.00
2023-03-29T00:44:01.193Z,10.00
2023-03-29T00:46:31.351Z,10.00
2023-03-29T00:49:15.772Z,10.00
2023-03-29T00:51:44.174Z,9.90
2023-03-29T00:54:19.050Z,9.90
2023-03-29T00:56:51.574Z,9.90
2023-03-29T00:59:25.201Z,9.90
2023-03-29T01:02:06.235Z,9.90
2023-03-29T01:04:41.989Z,10.00
2023-03-29T01:07:21.678Z,9.90
2023-03-29T01:10:09.671Z,9.90
2023-03-29T01:12:52.059Z,9.90
2023-03-29T01:15:28.805Z,9.90
2023-03-29T01:17:58.729Z,9.90
2023-03-29T01:20:43.958Z,9.90
2023-03-29T01:23:21.610Z,9.90
2023-03-29T01:26:10.645Z,10.00
2023-03-29T01:28:46.184Z,9.90
2023-03-29T01:31:30.618Z,9.90
2023-03-29T01:34:37.599Z,9.80
2023-03-29T01:37:25.179Z,9.80
2023-03-29T01:39:53.668Z,9.80
2023-03-29T01:42:31.586Z,9.70
2023-03-29T01:45:11.973Z,9.60
2023-03-29T01:48:02.987Z,9.60
2023-03-29T01:50:57.017Z,9.50
2023-03-29T01:53:39.982Z,9.50
2023-03-29T01:56:16.598Z,9.50
2023-03-29T01:58:52.145Z,9.50
2023-03-29T02:01:26.300Z,9.50
2023-03-29T02:03:59.721Z,9.50
2023-03-29T02:06:30.519Z,9.40
2023-03-29T02:09:01.959Z,9.40
2023-03-29T02:11:29.926Z,9.40
2023-03-29T02:13:58.361Z,9.30
2023-03-29T02:16:27.175Z,9.30
2023-03-29T02:18:57.303Z,9.30
2023-03-29T02:21:52.145Z,9.20
2023-03-29T02:24:22.525Z,9.20
2023-03-29T02:26:51.208Z,9.20
2023-03-29T02:29:19.237Z,9.20
2023-03-29T02:32:12.865Z,9.20
2023-03-29T02:34:50.832Z,9.20
2023-03-29T02:37:22.220Z,9.20
2023-03-29T02:39:53.021Z,9.10
2023-03-29T02:42:25.277Z,9.10
2023-03-29T02:44:57.954Z,9.10
2023-03-29T02:47:45.856Z,9.10
2023-03-29T02:50:14.485Z,9.10
2023-03-29T02:52:50.631Z,9.00
2023-03-29T02:55:22.009Z,9.00
2023-03-29T02:57:50.023Z,9.00
2023-03-29T03:00:19.986Z,9.00
2023-03-29T03:02:49.253Z,9.00
2023-03-29T03:05:18.033Z,9.00
2023-03-29T03:07:46.511Z,9.00
2023-03-29T03:10:15.266Z,9.00
2023-03-29T03:12:43.324Z,9.00
2023-03-29T03:15:11.743Z,8.90
2023-03-29T03:17:41.247Z,8.90
2023-03-29T03:20:13.704Z,8.90
2023-03-29T03:22:45.951Z,8.90
2023-03-29T03:25:13.988Z,8.80
2023-03-29T03:27:42.562Z,8.80
2023-03-29T03:30:12.629Z,8.80
2023-03-29T03:33:03.534Z,8.80
2023-03-29T03:35:57.567Z,8.70
2023-03-29T03:38:26.129Z,8.70
2023-03-29T03:41:00.138Z,8.70
2023-03-29T03:43:30.621Z,8.70
2023-03-29T03:45:59.243Z,8.60
2023-03-29T03:48:27.606Z,8.60
2023-03-29T03:51:01.466Z,8.60
2023-03-29T03:53:34.271Z,8.50
2023-03-29T03:56:15.267Z,8.50
2023-03-29T03:59:01.907Z,8.50
2023-03-29T04:01:35.913Z,8.50
2023-03-29T04:04:14.956Z,8.50
2023-03-29T04:06:55.182Z,8.40
2023-03-29T04:09:36.667Z,8.40
2023-03-29T04:12:27.430Z,8.40
2023-03-29T04:14:56.670Z,8.40
2023-03-29T04:17:26.569Z,8.40
2023-03-29T04:20:01.879Z,8.30
2023-03-29T04:22:34.292Z,8.30
2023-03-29T04:25:02.400Z,8.20
2023-03-29T04:27:53.443Z,8.20
2023-03-29T04:30:34.401Z,8.20
2023-03-29T04:33:21.552Z,8.20
2023-03-29T04:35:57.641Z,8.20
2023-03-29T04:38:27.194Z,8.10
2023-03-29T04:40:55.881Z,8.10
2023-03-29T04:43:47.064Z,8.10
2023-03-29T04:46:26.990Z,8.10
2023-03-29T04:49:14.087Z,8.00
2023-03-29T04:51:46.136Z,8.00
2023-03-29T04:54:17.341Z,8.00
2023-03-29T04:57:15.624Z,8.00
2023-03-29T04:59:48.859Z,7.90
2023-03-29T05:02:38.155Z,8.00
2023-03-29T05:05:07.095Z,8.00
2023-03-29T05:07:36.011Z,8.00
2023-03-29T05:10:04.907Z,8.00
2023-03-29T05:12:33.734Z,8.00
2023-03-29T05:15:01.913Z,8.00
2023-03-29T05:17:30.831Z,8.00
2023-03-29T05:20:10.130Z,8.10
2023-03-29T05:22:38.852Z,8.10
2023-03-29T05:25:12.130Z,8.20
2023-03-29T05:27:44.112Z,8.20
2023-03-29T05:30:15.806Z,8.30
2023-03-29T05:33:05.974Z,8.30
2023-03-29T05:35:36.430Z,8.40
2023-03-29T05:38:08.297Z,8.40
2023-03-29T05:40:36.748Z,8.50
2023-03-29T05:43:10.589Z,8.60
2023-03-29T05:45:38.828Z,8.60
2023-03-29T05:48:07.067Z,8.70
2023-03-29T05:50:38.923Z,8.80
2023-03-29T05:53:08.416Z,8.90
2023-03-29T05:55:36.874Z,9.00
2023-03-29T05:58:05.383Z,9.10
2023-03-29T06:00:39.017Z,9.30
2023-03-29T06:03:27.828Z,9.40
2023-03-29T06:06:00.925Z,9.50
2023-03-29T06:08:29.832Z,9.70
2023-03-29T06:11:16.029Z,9.90
2023-03-29T06:14:08.017Z,10.00
2023-03-29T06:16:42.800Z,10.20
2023-03-29T06:19:13.085Z,10.40
2023-03-29T06:21:42.373Z,10.60
2023-03-29T06:24:14.440Z,10.70
2023-03-29T06:26:47.958Z,10.90
2023-03-29T06:29:16.359Z,11.10
2023-03-29T06:31:47.275Z,11.20
2023-03-29T06:34:36.665Z,11.40
2023-03-29T06:37:24.685Z,11.50
2023-03-29T06:40:06.919Z,11.70
2023-03-29T06:42:45.349Z,11.80
2023-03-29T06:45:35.785Z,12.00
2023-03-29T06:48:09.129Z,12.10
2023-03-29T06:50:37.578Z,12.20
2023-03-29T06:53:12.097Z,12.30
2023-03-29T06:55:42.290Z,12.30
2023-03-29T06:58:30.179Z,12.40
2023-03-29T07:01:05.393Z,12.50
2023-03-29T07:03:47.849Z,12.60
2023-03-29T07:06:21.157Z,12.70
2023-03-29T07:08:52.761Z,12.80
2023-03-29T07:11:42.182Z,12.80
2023-03-29T07:14:22.872Z,12.90
2023-03-29T07:16:52.548Z,12.90
2023-03-29T07:19:30.555Z,12.90
2023-03-29T07:22:33.911Z,13.00
2023-03-29T07:25:04.723Z,13.00
2023-03-29T07:27:33.045Z,13.00
2023-03-29T07:30:01.029Z,13.10
2023-03-29T07:32:32.650Z,13.20
2023-03-29T07:35:19.268Z,13.10
2023-03-29T07:37:48.025Z,13.30
2023-03-29T07:40:19.165Z,13.30
2023-03-29T07:43:09.401Z,13.40
2023-03-29T07:45:38.106Z,13.50
2023-03-29T07:48:10.364Z,13.70
2023-03-29T07:50:54.276Z,13.60
2023-03-29T07:53:29.916Z,13.60
2023-03-29T07:56:00.747Z,13.70
2023-03-29T07:59:07.332Z,13.90
2023-03-29T08:01:37.423Z,14.10
2023-03-29T08:04:21.107Z,14.10
2023-03-29T08:07:07.733Z,14.00
2023-03-29T08:09:59.087Z,14.10
2023-03-29T08:12:54.131Z,14.20
2023-03-29T08:15:29.600Z,14.50
2023-03-29T08:17:57.684Z,14.80
2023-03-29T08:20:26.489Z,14.60
2023-03-29T08:22:57.921Z,14.80
2023-03-29T08:25:52.645Z,15.00
2023-03-29T08:28:21.574Z,14.90
2023-03-29T08:30:53.148Z,15.00
2023-03-29T08:33:21.911Z,15.10
2023-03-29T08:35:58.530Z,15.20
2023-03-29T08:38:32.106Z,15.40
2023-03-29T08:41:00.910Z,15.50
2023-03-29T08:43:48.792Z,15.50
2023-03-29T08:46:48.202Z,15.80
2023-03-29T08:49:40.048Z,15.70
2023-03-29T08:52:23.428Z,16.00
2023-03-29T08:54:54.290Z,16.30
2023-03-29T08:57:42.386Z,16.20
2023-03-29T09:00:23.528Z,16.20
2023-03-29T09:02:54.277Z,16.40
2023-03-29T09:05:36.138Z,16.70
2023-03-29T09:08:17.882Z,16.60
2023-03-29T09:11:08.939Z,16.40
2023-03-29T09:14:11.238Z,16.30
2023-03-29T09:16:49.813Z,16.70
2023-03-29T09:20:11.499Z,16.90
2023-03-29T09:23:00.215Z,17.00
2023-03-29T09:26:00.018Z,17.00
2023-03-29T09:28:56.271Z,17.00
2023-03-29T09:31:39.552Z,16.40
2023-03-29T09:34:30.698Z,16.50
2023-03-29T09:37:12.990Z,16.90
2023-03-29T09:39:43.374Z,17.40
2023-03-29T09:42:17.542Z,17.00
2023-03-29T09:44:53.147Z,17.10
2023-03-29T09:47:46.222Z,17.20
2023-03-29T09:50:30.145Z,17.40
2023-03-29T09:52:59.775Z,17.20
2023-03-29T09:55:33.018Z,17.40
2023-03-29T09:58:19.187Z,17.70
2023-03-29T10:00:51.719Z,17.90
2023-03-29T10:03:24.289Z,17.60
2023-03-29T10:06:07.505Z,17.80
2023-03-29T10:09:01.056Z,18.60
2023-03-29T10:11:38.825Z,19.20
2023-03-29T10:14:14.551Z,18.80
2023-03-29T10:16:47.120Z,18.90
2023-03-29T10:19:36.302Z,19.20
2023-03-29T10:22:15.052Z,19.10
2023-03-29T10:24:52.536Z,19.60
2023-03-29T10:27:27.555Z,20.20
2023-03-29T10:29:57.230Z,20.50
2023-03-29T10:32:34.223Z,21.00
2023-03-29T10:35:09.878Z,20.30
2023-03-29T10:37:45.080Z,20.80
2023-03-29T10:40:26.734Z,21.50
2023-03-29T10:42:58.459Z,21.10
2023-03-29T10:45:34.538Z,21.10
2023-03-29T10:48:07.695Z,21.70
2023-03-29T10:50:39.781Z,21.40
2023-03-29T10:53:28.070Z,21.40
2023-03-29T10:56:25.261Z,20.80
2023-03-29T10:59:25.922Z,21.00
2023-03-29T11:01:56.938Z,22.00
2023-03-29T11:04:46.151Z,23.30
2023-03-29T11:07:28.301Z,23.30
2023-03-29T11:10:02.849Z,23.00
2023-03-29T11:13:12.395Z,23.40
2023-03-29T11:16:05.404Z,23.50
2023-03-29T11:18:57.353Z,23.20
2023-03-29T11:21:51.779Z,24.10
2023-03-29T11:24:58.460Z,23.00
2023-03-29T11:27:38.553Z,22.80
2023-03-29T11:30:22.224Z,23.00
2023-03-29T11:33:28.397Z,23.70
2023-03-29T11:36:06.533Z,23.50
2023-03-29T11:38:41.364Z,24.00
2023-03-29T11:41:23.730Z,23.70
2023-03-29T11:44:34.244Z,24.20
2023-03-29T11:47:15.883Z,24.30
2023-03-29T11:49:57.995Z,24.40
2023-03-29T11:52:40.229Z,25.40
2023-03-29T11:55:08.473Z,25.70
2023-03-29T11:57:44.691Z,25.90
2023-03-29T12:00:30.583Z,25.70
2023-03-29T12:03:15.218Z,25.00
2023-03-29T12:05:49.429Z,24.20
2023-03-29T12:08:39.988Z,24.70
2023-03-29T12:11:10.305Z,25.30
2023-03-29T12:14:04.154Z,25.70
2023-03-29T12:17:01.728Z,25.80
2023-03-29T12:19:38.592Z,26.30
2023-03-29T12:22:11.909Z,27.00
2023-03-29T12:24:47.369Z,27.70
2023-03-29T12:27:21.567Z,27.30
2023-03-29T12:30:16.619Z,26.80
2023-03-29T12:33:03.475Z,26.80
2023-03-29T12:36:11.558Z,26.80
2023-03-29T12:38:59.752Z,26.60
2023-03-29T12:41:54.007Z,26.50
2023-03-29T12:45:02.047Z,25.60
2023-03-29T12:47:42.767Z,25.90
2023-03-29T12:50:42.226Z,25.60
2023-03-29T12:53:22.604Z,25.50
2023-03-29T12:56:09.062Z,25.00
2023-03-29T12:58:39.874Z,25.80
2023-03-29T13:01:09.691Z,25.70
2023-03-29T13:03:40.394Z,26.40
2023-03-29T13:06:11.355Z,26.60
2023-03-29T13:08:45.128Z,26.00
2023-03-29T13:11:28.128Z,24.40
2023-03-29T13:13:57.828Z,23.10
2023-03-29T13:16:35.367Z,22.90
2023-03-29T13:19:26.192Z,24.20
2023-03-29T13:21:54.384Z,25.00
2023-03-29T13:24:45.756Z,25.30
2023-03-29T13:27:32.292Z,25.60
2023-03-29T13:30:20.457Z,25.70
2023-03-29T13:32:56.441Z,25.40
2023-03-29T13:35:50.355Z,25.80
2023-03-29T13:38:23.512Z,26.30
2023-03-29T13:40:54.583Z,26.10
2023-03-29T13:43:50.408Z,25.80
2023-03-29T13:46:41.302Z,26.40
2023-03-29T13:49:29.166Z,26.80
2023-03-29T13:52:16.802Z,26.00
2023-03-29T13:55:04.854Z,24.20
2023-03-29T13:57:51.935Z,23.50
2023-03-29T14:00:25.756Z,23.40
2023-03-29T14:03:04.609Z,24.40
2023-03-29T14:05:33.271Z,24.70
2023-03-29T14:08:13.870Z,24.40
2023-03-29T14:10:44.326Z,25.10
2023-03-29T14:13:15.246Z,25.40
2023-03-29T14:15:51.122Z,25.40
2023-03-29T14:18:22.988Z,24.10
2023-03-29T14:20:56.708Z,22.20
2023-03-29T14:23:33.690Z,20.90
2023-03-29T14:26:17.048Z,19.90
2023-03-29T14:28:53.760Z,20.40
2023-03-29T14:31:42.622Z,21.80
2023-03-29T14:34:19.182Z,23.00
2023-03-29T14:36:49.731Z,22.90
2023-03-29T14:39:23.465Z,23.10
2023-03-29T14:41:58.423Z,24.10
2023-03-29T14:44:33.399Z,24.20
2023-03-29T14:47:03.433Z,22.90
2023-03-29T14:49:32.873Z,22.00
2023-03-29T14:52:01.134Z,21.90
2023-03-29T14:54:37.241Z,21.50
2023-03-29T14:57:08.597Z,21.20
2023-03-29T14:59:43.282Z,21.00
2023-03-29T15:02:26.433Z,20.90
2023-03-29T15:05:00.456Z,20.10
2023-03-29T15:07:30.211Z,19.90
2023-03-29T15:10:00.578Z,19.60
2023-03-29T15:12:33.149Z,19.40
2023-03-29T15:15:01.881Z,19.20
2023-03-29T15:17:50.329Z,19.00
2023-03-29T15:20:27.853Z,18.90
2023-03-29T15:23:04.418Z,18.90
2023-03-29T15:25:48.193Z,18.80
2023-03-29T15:28:29.078Z,18.70
2023-03-29T15:31:12.165Z,18.50
2023-03-29T15:33:42.391Z,18.40
2023-03-29T15:36:15.929Z,18.30
2023-03-29T15:38:45.366Z,18.30
2023-03-29T15:41:16.572Z,18.30
2023-03-29T15:43:44.870Z,18.30
2023-03-29T15:46:14.334Z,18.40
2023-03-29T15:48:43.372Z,18.10
2023-03-29T15:51:15.737Z,17.90
2023-03-29T15:53:43.889Z,17.80
2023-03-29T15:56:17.678Z,17.70
2023-03-29T15:58:46.242Z,18.00
2023-03-29T16:01:34.597Z,18.10
2023-03-29T16:04:05.193Z,18.30
2023-03-29T16:06:34.677Z,18.30
2023-03-29T16:09:03.368Z,18.20
2023-03-29T16:11:32.310Z,18.40
2023-03-29T16:14:01.265Z,18.50
2023-03-29T16:16:29.479Z,18.40
2023-03-29T16:18:57.581Z,18.40
2023-03-29T16:21:27.158Z,18.20
2023-03-29T16:23:55.231Z,17.80
2023-03-29T16:26:23.631Z,17.50
2023-03-29T16:28:51.762Z,17.40
2023-03-29T16:31:20.821Z,17.20
2023-03-29T16:33:52.013Z,17.30
2023-03-29T16:36:20.339Z,17.20
2023-03-29T16:38:48.344Z,17.10
2023-03-29T16:41:18.234Z,17.10
2023-03-29T16:43:46.582Z,16.90
2023-03-29T16:46:14.607Z,16.90
2023-03-29T16:48:43.173Z,16.90
2023-03-29T16:51:11.835Z,16.90
2023-03-29T16:53:40.915Z,16.90
2023-03-29T16:56:09.928Z,16.80
2023-03-29T16:58:40.360Z,16.80
2023-03-29T17:01:10.437Z,16.60
2023-03-29T17:03:40.134Z,16.50
2023-03-29T17:06:09.557Z,16.50
2023-03-29T17:08:39.148Z,16.40
2023-03-29T17:11:09.708Z,16.30
2023-03-29T17:13:38.317Z,16.10
2023-03-29T17:16:07.278Z,15.90
2023-03-29T17:18:35.923Z,15.80
2023-03-29T17:21:03.958Z,15.70
2023-03-29T17:23:32.077Z,15.70
2023-03-29T17:26:00.218Z,15.60
2023-03-29T17:28:28.382Z,15.60
2023-03-29T17:30:56.959Z,15.40
2023-03-29T17:33:26.599Z,15.40
2023-03-29T17:35:55.080Z,15.30
2023-03-29T17:38:23.340Z,15.20
2023-03-29T17:40:55.070Z,15.20
2023-03-29T17:43:23.631Z,15.10
2023-03-29T17:45:54.943Z,15.10
2023-03-29T17:48:24.761Z,15.10
2023-03-29T17:50:55.165Z,14.90
2023-03-29T17:53:23.102Z,14.80
2023-03-29T17:55:51.888Z,14.60
2023-03-29T17:58:20.228Z,14.60
2023-03-29T18:00:48.417Z,14.50
2023-03-29T18:03:16.531Z,14.40
2023-03-29T18:05:44.484Z,14.30
2023-03-29T18:08:14.192Z,14.30
2023-03-29T18:10:42.277Z,14.10
2023-03-29T18:13:14.324Z,14.00
2023-03-29T18:15:44.461Z,14.00
2023-03-29T18:18:12.466Z,14.00
2023-03-29T18:20:40.841Z,14.00
2023-03-29T18:23:11.850Z,14.10
2023-03-29T18:25:39.995Z,14.10
2023-03-29T18:28:08.226Z,14.20
2023-03-29T18:30:36.620Z,14.00
2023-03-29T18:33:04.711Z,13.90
2023-03-29T18:35:36.244Z,14.00
2023-03-29T18:38:04.259Z,13.90
2023-03-29T18:40:32.499Z,13.70
2023-03-29T18:43:01.032Z,13.50
2023-03-29T18:45:28.827Z,13.50
2023-03-29T18:47:56.881Z,13.40
2023-03-29T18:50:25.218Z,13.40
2023-03-29T18:52:53.308Z,13.50
2023-03-29T18:55:21.735Z,13.50
2023-03-29T18:57:49.939Z,13.40
2023-03-29T19:00:18.547Z,13.50
2023-03-29T19:02:46.789Z,13.40
2023-03-29T19:05:15.363Z,13.40
2023-03-29T19:07:43.553Z,13.40
2023-03-29T19:10:12.646Z,13.40
2023-03-29T19:12:42.783Z,13.40
2023-03-29T19:15:13.742Z,13.30
2023-03-29T19:17:42.327Z,13.20
2023-03-29T19:20:11.038Z,13.30
2023-03-29T19:22:39.791Z,13.30
2023-03-29T19:25:08.257Z,13.40
2023-03-29T19:27:37.085Z,13.40
2023-03-29T19:30:05.893Z,13.40
2023-03-29T19:32:34.354Z,13.40
2023-03-29T19:35:02.709Z,13.40
2023-03-29T19:37:31.327Z,13.30
2023-03-29T19:39:59.377Z,13.30
2023-03-29T19:42:27.290Z,13.30
2023-03-29T19:44:55.334Z,13.30
2023-03-29T19:47:23.536Z,13.20
2023-03-29T19:49:51.878Z,13.20
2023-03-29T19:52:24.377Z,13.10
2023-03-29T19:54:54.457Z,13.10
2023-03-29T19:57:23.457Z,13.00
2023-03-29T19:59:53.811Z,13.00
2023-03-29T20:02:23.367Z,12.90
2023-03-29T20:04:51.294Z,12.90
2023-03-29T20:07:20.657Z,12.90
2023-03-29T20:09:48.786Z,12.90
2023-03-29T20:12:16.817Z,12.90
2023-03-29T20:14:44.848Z,12.90
2023-03-29T20:17:13.482Z,12.80
2023-03-29T20:19:44.435Z,12.80
2023-03-29T20:22:12.844Z,12.70
2023-03-29T20:24:40.774Z,12.80
2023-03-29T20:27:09.128Z,12.70
2023-03-29T20:29:36.958Z,12.60
2023-03-29T20:32:05.117Z,12.60
2023-03-29T20:34:33.120Z,12.50
2023-03-29T20:37:01.702Z,12.50
2023-03-29T20:39:31.781Z,12.50
2023-03-29T20:42:00.918Z,12.40
2023-03-29T20:44:28.845Z,12.50
2023-03-29T20:47:04.379Z,12.40
2023-03-29T20:49:39.600Z,12.40
2023-03-29T20:52:15.835Z,12.40
2023-03-29T20:54:45.478Z,12.30
2023-03-29T20:57:16.449Z,12.30
2023-03-29T20:59:45.854Z,12.30
2023-03-29T21:02:24.238Z,12.20
2023-03-29T21:04:54.085Z,12.20
2023-03-29T21:07:22.399Z,12.20
2023-03-29T21:09:50.811Z,12.20
2023-03-29T21:12:20.877Z,12.10
2023-03-29T21:14:50.999Z,12.10
2023-03-29T21:17:19.142Z,12.10
2023-03-29T21:19:47.178Z,12.00
2023-03-29T21:22:15.675Z,12.00
2023-03-29T21:24:43.608Z,12.10
2023-03-29T21:27:11.859Z,12.00
2023-03-29T21:29:39.886Z,12.00
2023-03-29T21:32:07.981Z,12.00
2023-03-29T21:34:35.879Z,12.00
2023-03-29T21:37:03.876Z,11.90
2023-03-29T21:39:31.896Z,11.90
2023-03-29T21:42:00.167Z,11.90
2023-03-29T21:44:28.304Z,11.90
2023-03-29T21:46:56.414Z,11.90
2023-03-29T21:49:24.526Z,11.90
2023-03-29T21:51:52.968Z,11.90
2023-03-29T21:54:20.958Z,11.80
2023-03-29T21:56:49.142Z,11.90
2023-03-29T21:59:17.277Z,11.80
2023-03-29T22:01:45.397Z,11.80
2023-03-29T22:04:19.798Z,11.80
2023-03-29T22:06:53.756Z,11.80
2023-03-29T22:09:21.910Z,11.80
2023-03-29T22:11:50.613Z,11.80
2023-03-29T22:14:19.901Z,11.80
2023-03-29T22:16:47.946Z,11.80
2023-03-29T22:19:15.826Z,11.80
2023-03-29T22:21:44.482Z,11.80
2023-03-29T22:24:12.643Z,11.70
2023-03-29T22:26:41.426Z,11.70
2023-03-29T22:29:09.410Z,11.70
2023-03-29T22:31:38.506Z,11.70
2023-03-29T22:34:06.568Z,11.70
2023-03-29T22:36:36.582Z,11.60
2023-03-29T22:39:05.459Z,11.70
2023-03-29T22:41:33.407Z,11.70
2023-03-29T22:44:04.145Z,11.60
2023-03-29T22:46:32.227Z,11.70
2023-03-29T22:49:00.608Z,11.60
2023-03-29T22:51:28.721Z,11.60
2023-03-29T22:53:56.663Z,11.60
2023-03-29T22:56:25.482Z,11.60
2023-03-29T22:58:53.825Z,11.60
2023-03-29T23:01:21.951Z,11.50
2023-03-29T23:03:49.996Z,11.50
2023-03-29T23:06:18.375Z,11.50
2023-03-29T23:08:46.374Z,11.50
2023-03-29T23:11:14.314Z,11.40
2023-03-29T23:13:42.316Z,11.40
2023-03-29T23:16:10.807Z,11.40
2023-03-29T23:18:39.226Z,11.30
2023-03-29T23:21:07.871Z,11.30
2023-03-29T23:23:36.092Z,11.30
2023-03-29T23:26:04.687Z,11.30
2023-03-29T23:28:36.088Z,11.30
2023-03-29T23:31:10.464Z,11.30
2023-03-29T23:33:41.634Z,11.30
2023-03-29T23:36:12.149Z,11.30
2023-03-29T23:38:41.180Z,11.20
2023-03-29T23:41:11.270Z,11.20
2023-03-29T23:43:43.811Z,11.20
2023-03-29T23:46:14.410Z,11.20
2023-03-29T23:48:51.326Z,11.30
2023-03-29T23:54:04.338Z,11.20
2023-03-29T23:56:32.320Z,11.20
2023-03-29T23:59:00.357Z,11.20
